Time;durP1;ratioP1;P1;durP2;ratioP2;P2;SDS_P1;SDS_P2;PMS_P1;PMS_P2;Temp;Humidity;BMP_temperature;BMP_pressure;BME280_temperature;BME280_humidity;BME280_pressure;Samples;Min_cycle;Max_cycle;Signal;HPM_P1;HPM_P2
2022/05/21 00:00:42;;;;;;;39.80;3.78;;;;;;;;;;4916989;29;20047;-77
2022/05/21 00:03:09;;;;;;;31.50;3.50;;;;;;;;;;4917870;29;20509;-77
2022/05/21 00:05:36;;;;;;;25.42;4.35;;;;;;;;;;4917500;29;20036;-76
2022/05/21 00:08:02;;;;;;;29.55;4.13;;;;;;;;;;4916460;29;20043;-76
2022/05/21 00:10:30;;;;;;;25.42;4.00;;;;;;;;;;4925103;29;20034;-77
2022/05/21 00:12:56;;;;;;;30.15;4.20;;;;;;;;;;4934323;29;20043;-78
2022/05/21 00:15:23;;;;;;;29.67;4.25;;;;;;;;;;4936453;29;20020;-76
2022/05/21 00:17:54;;;;;;;26.60;3.45;;;;;;;;;;4936541;29;20028;-76
2022/05/21 00:23:09;;;;;;;26.48;3.33;;;;;;;;;;4917406;29;20496;-77
2022/05/21 00:25:35;;;;;;;26.80;3.58;;;;;;;;;;4917433;29;20032;-75
2022/05/21 00:28:02;;;;;;;23.10;3.88;;;;;;;;;;4917115;29;20020;-76
2022/05/21 00:30:28;;;;;;;32.25;4.55;;;;;;;;;;4917015;29;20032;-76
2022/05/21 00:32:54;;;;;;;23.17;4.05;;;;;;;;;;4917209;29;20040;-76
2022/05/21 00:35:20;;;;;;;30.00;3.60;;;;;;;;;;4916641;29;20375;-76
2022/05/21 00:37:46;;;;;;;22.60;3.80;;;;;;;;;;4916712;29;20031;-76
2022/05/21 00:40:12;;;;;;;31.70;4.03;;;;;;;;;;4914955;29;20184;-76
2022/05/21 00:42:43;;;;;;;25.38;3.78;;;;;;;;;;4917638;29;20430;-78
2022/05/21 00:45:09;;;;;;;25.10;3.72;;;;;;;;;;4917859;29;20199;-78
2022/05/21 00:47:36;;;;;;;38.50;4.75;;;;;;;;;;4916480;29;20024;-77
2022/05/21 00:50:03;;;;;;;26.98;4.00;;;;;;;;;;4915384;29;20040;-77
2022/05/21 00:52:29;;;;;;;40.90;5.15;;;;;;;;;;4917539;29;20024;-76
2022/05/21 00:54:58;;;;;;;30.52;3.72;;;;;;;;;;4914217;29;20032;-76
2022/05/21 00:57:38;;;;;;;29.70;4.38;;;;;;;;;;4914754;29;20035;-76
2022/05/21 01:00:09;;;;;;;26.88;4.13;;;;;;;;;;4917060;29;20092;-77
2022/05/21 01:02:37;;;;;;;30.33;3.78;;;;;;;;;;4916672;29;20032;-77
2022/05/21 01:05:07;;;;;;;23.70;4.53;;;;;;;;;;4916710;29;20032;-77
2022/05/21 01:07:33;;;;;;;31.00;4.05;;;;;;;;;;4917277;29;20021;-77
2022/05/21 01:10:00;;;;;;;28.23;3.40;;;;;;;;;;4903562;29;20028;-77
2022/05/21 01:12:27;;;;;;;23.45;3.33;;;;;;;;;;4916549;29;20036;-78
2022/05/21 01:14:56;;;;;;;27.23;3.30;;;;;;;;;;4917066;29;20027;-77
2022/05/21 01:17:22;;;;;;;25.08;3.78;;;;;;;;;;4917366;29;20028;-77
2022/05/21 01:20:00;;;;;;;29.75;4.13;;;;;;;;;;4919849;29;20515;-77
2022/05/21 01:22:27;;;;;;;25.55;4.25;;;;;;;;;;4935858;29;20166;-77
2022/05/21 01:24:54;;;;;;;27.63;3.95;;;;;;;;;;4935935;29;20020;-77
2022/05/21 01:27:20;;;;;;;27.38;3.22;;;;;;;;;;4936520;29;20481;-77
2022/05/21 01:29:48;;;;;;;27.60;3.88;;;;;;;;;;4936719;29;20051;-78
2022/05/21 01:32:18;;;;;;;23.55;3.13;;;;;;;;;;4918219;29;20043;-78
2022/05/21 01:34:44;;;;;;;11.80;2.50;;;;;;;;;;4933684;29;20035;-78
2022/05/21 01:37:11;;;;;;;26.17;3.30;;;;;;;;;;4932799;29;20465;-78
2022/05/21 01:39:37;;;;;;;20.80;3.15;;;;;;;;;;4936078;29;20095;-78
2022/05/21 01:42:03;;;;;;;25.05;3.42;;;;;;;;;;4935173;29;20039;-77
2022/05/21 01:44:38;;;;;;;18.33;2.83;;;;;;;;;;4935270;29;20028;-77
2022/05/21 01:47:14;;;;;;;19.15;2.80;;;;;;;;;;4935448;29;20034;-77
2022/05/21 01:49:41;;;;;;;19.95;2.85;;;;;;;;;;4934496;29;20023;-76
2022/05/21 01:52:08;;;;;;;29.95;3.63;;;;;;;;;;4938208;29;20028;-77
2022/05/21 01:54:35;;;;;;;19.38;2.70;;;;;;;;;;4936667;29;20493;-77
2022/05/21 01:57:01;;;;;;;18.98;3.33;;;;;;;;;;4922343;29;20071;-77
2022/05/21 01:59:28;;;;;;;25.25;3.10;;;;;;;;;;4922129;29;20028;-75
2022/05/21 02:01:54;;;;;;;24.25;3.45;;;;;;;;;;4939432;29;20028;-77
2022/05/21 02:04:21;;;;;;;22.58;3.42;;;;;;;;;;4939314;29;20028;-78
2022/05/21 02:06:48;;;;;;;17.42;2.30;;;;;;;;;;4939155;29;20023;-78
2022/05/21 02:09:14;;;;;;;20.38;3.40;;;;;;;;;;4938607;29;20036;-77
2022/05/21 02:11:40;;;;;;;18.92;2.80;;;;;;;;;;4919571;29;20031;-76
2022/05/21 02:14:07;;;;;;;18.10;2.65;;;;;;;;;;4919793;29;20128;-76
2022/05/21 02:16:34;;;;;;;14.95;2.42;;;;;;;;;;4935610;29;20024;-78
2022/05/21 02:19:04;;;;;;;12.48;2.20;;;;;;;;;;4939008;29;20448;-76
2022/05/21 02:21:30;;;;;;;20.77;2.92;;;;;;;;;;4937233;29;20392;-77
2022/05/21 02:23:57;;;;;;;14.88;2.13;;;;;;;;;;4938899;29;20031;-77
2022/05/21 02:26:23;;;;;;;18.67;2.47;;;;;;;;;;4939963;29;20127;-77
2022/05/21 02:28:49;;;;;;;18.90;2.67;;;;;;;;;;4927766;29;20032;-77
2022/05/21 02:31:15;;;;;;;16.77;2.50;;;;;;;;;;4919454;29;20039;-78
2022/05/21 02:33:41;;;;;;;12.68;2.05;;;;;;;;;;4919409;29;20036;-77
2022/05/21 02:36:08;;;;;;;19.23;2.80;;;;;;;;;;4918345;29;20032;-77
2022/05/21 02:41:19;;;;;;;21.98;2.72;;;;;;;;;;4919420;29;20028;-78
2022/05/21 02:43:46;;;;;;;16.45;2.63;;;;;;;;;;4918555;29;20036;-78
2022/05/21 02:46:13;;;;;;;11.13;2.00;;;;;;;;;;4932571;29;20043;-78
2022/05/21 02:48:39;;;;;;;11.93;2.33;;;;;;;;;;4937052;29;20564;-78
2022/05/21 02:51:06;;;;;;;17.90;2.30;;;;;;;;;;4937161;29;20051;-77
2022/05/21 02:53:32;;;;;;;11.48;2.03;;;;;;;;;;4936347;29;20039;-76
2022/05/21 02:56:03;;;;;;;14.02;2.10;;;;;;;;;;4936491;29;20024;-78
2022/05/21 02:58:29;;;;;;;12.40;2.10;;;;;;;;;;4936857;29;20410;-78
2022/05/21 03:00:55;;;;;;;14.20;1.80;;;;;;;;;;4937188;29;20051;-78
2022/05/21 03:03:21;;;;;;;11.10;2.00;;;;;;;;;;4935441;29;20028;-78
2022/05/21 03:05:48;;;;;;;11.02;1.60;;;;;;;;;;4936163;29;20426;-78
2022/05/21 03:10:59;;;;;;;9.93;1.70;;;;;;;;;;4936368;29;20043;-77
2022/05/21 03:13:26;;;;;;;9.88;1.77;;;;;;;;;;4936115;29;20040;-78
2022/05/21 03:15:52;;;;;;;9.43;2.45;;;;;;;;;;4936535;29;20085;-77
2022/05/21 03:18:20;;;;;;;15.73;2.30;;;;;;;;;;4936344;29;20512;-76
2022/05/21 03:20:46;;;;;;;11.32;2.15;;;;;;;;;;4936079;29;20047;-76
2022/05/21 03:23:12;;;;;;;15.65;2.22;;;;;;;;;;4936471;29;20622;-77
2022/05/21 03:25:39;;;;;;;13.13;2.13;;;;;;;;;;4935542;29;20485;-77
2022/05/21 03:28:06;;;;;;;15.60;2.53;;;;;;;;;;4936521;29;20036;-78
2022/05/21 03:30:32;;;;;;;13.35;1.90;;;;;;;;;;4936431;29;20020;-78
2022/05/21 03:32:58;;;;;;;14.10;1.90;;;;;;;;;;4936331;29;20110;-77
2022/05/21 03:35:25;;;;;;;11.27;1.58;;;;;;;;;;4924900;29;20032;-77
2022/05/21 03:37:52;;;;;;;12.32;1.95;;;;;;;;;;4917101;29;20036;-77
2022/05/21 03:40:23;;;;;;;13.43;1.70;;;;;;;;;;4917171;29;20059;-77
2022/05/21 03:42:49;;;;;;;17.90;3.08;;;;;;;;;;4916929;29;20496;-77
2022/05/21 03:45:15;;;;;;;13.63;2.50;;;;;;;;;;4916670;29;20501;-77
2022/05/21 03:47:42;;;;;;;13.82;2.47;;;;;;;;;;4917513;29;20095;-76
2022/05/21 03:50:13;;;;;;;15.43;1.92;;;;;;;;;;4917548;29;20028;-78
2022/05/21 03:52:39;;;;;;;15.68;2.13;;;;;;;;;;4922766;29;20027;-77
2022/05/21 03:55:06;;;;;;;10.05;1.80;;;;;;;;;;4936395;29;20027;-78
2022/05/21 03:57:32;;;;;;;15.90;1.98;;;;;;;;;;4937269;29;20114;-77
2022/05/21 03:59:58;;;;;;;17.65;2.22;;;;;;;;;;4936954;29;20031;-76
2022/05/21 04:02:25;;;;;;;12.10;1.63;;;;;;;;;;4936597;29;20028;-78
2022/05/21 04:04:51;;;;;;;12.60;2.03;;;;;;;;;;4936415;29;20020;-78
2022/05/21 04:07:17;;;;;;;16.00;1.90;;;;;;;;;;4936353;29;20075;-77
2022/05/21 04:09:43;;;;;;;12.77;1.95;;;;;;;;;;4933280;29;20034;-80
2022/05/21 04:12:10;;;;;;;13.93;2.10;;;;;;;;;;4917854;29;20111;-78
2022/05/21 04:14:36;;;;;;;14.88;1.88;;;;;;;;;;4917060;29;20043;-77
2022/05/21 04:17:03;;;;;;;10.13;1.90;;;;;;;;;;4917144;29;20024;-78
2022/05/21 04:19:30;;;;;;;11.93;1.75;;;;;;;;;;4917643;29;20028;-77
2022/05/21 04:21:56;;;;;;;10.32;2.20;;;;;;;;;;4917376;29;20051;-77
2022/05/21 04:24:23;;;;;;;12.63;2.10;;;;;;;;;;4917247;29;20043;-76
2022/05/21 04:26:49;;;;;;;11.48;2.13;;;;;;;;;;4916427;29;20032;-77
2022/05/21 04:29:16;;;;;;;11.55;2.03;;;;;;;;;;4917381;29;20477;-78
2022/05/21 04:31:43;;;;;;;10.45;2.30;;;;;;;;;;4918032;29;20088;-78
2022/05/21 04:34:10;;;;;;;14.98;2.03;;;;;;;;;;4917008;29;20096;-77
2022/05/21 04:36:36;;;;;;;17.30;2.55;;;;;;;;;;4915590;29;20442;-77
2022/05/21 04:39:02;;;;;;;17.23;2.15;;;;;;;;;;4916771;29;20035;-76
2022/05/21 04:41:29;;;;;;;11.63;1.80;;;;;;;;;;4917160;29;20036;-77
2022/05/21 04:43:55;;;;;;;18.27;2.13;;;;;;;;;;4917590;29;20051;-77
2022/05/21 04:46:21;;;;;;;14.40;2.42;;;;;;;;;;4916774;29;20394;-78
2022/05/21 04:48:49;;;;;;;14.98;1.98;;;;;;;;;;4916713;29;20028;-77
2022/05/21 04:51:15;;;;;;;10.80;1.88;;;;;;;;;;4917113;29;20127;-78
2022/05/21 04:53:41;;;;;;;20.77;2.30;;;;;;;;;;4917112;29;20064;-77
2022/05/21 04:56:07;;;;;;;14.50;2.13;;;;;;;;;;4917516;29;20028;-76
2022/05/21 04:58:34;;;;;;;14.82;2.30;;;;;;;;;;4917328;29;20035;-76
2022/05/21 05:01:01;;;;;;;11.00;1.90;;;;;;;;;;4918016;29;20024;-77
2022/05/21 05:03:27;;;;;;;15.38;2.20;;;;;;;;;;4917054;29;20048;-77
2022/05/21 05:05:53;;;;;;;18.42;2.25;;;;;;;;;;4916902;29;20028;-77
2022/05/21 05:08:20;;;;;;;14.60;2.22;;;;;;;;;;4916572;29;20024;-78
2022/05/21 05:10:47;;;;;;;12.02;2.17;;;;;;;;;;4916278;29;20382;-77
2022/05/21 05:13:14;;;;;;;16.15;2.72;;;;;;;;;;4916308;29;20389;-77
2022/05/21 05:15:40;;;;;;;11.90;2.38;;;;;;;;;;4916465;29;20392;-76
2022/05/21 05:18:08;;;;;;;11.20;2.83;;;;;;;;;;4921907;29;20016;-76
2022/05/21 05:20:35;;;;;;;11.90;2.30;;;;;;;;;;4935497;29;20075;-77
2022/05/21 05:23:01;;;;;;;12.68;2.08;;;;;;;;;;4935609;29;20437;-76
2022/05/21 05:25:27;;;;;;;15.70;2.35;;;;;;;;;;4935887;29;20039;-77
2022/05/21 05:27:53;;;;;;;17.25;2.60;;;;;;;;;;4936077;29;20036;-77
2022/05/21 05:30:20;;;;;;;11.45;2.13;;;;;;;;;;4935719;29;20118;-77
2022/05/21 05:32:47;;;;;;;12.88;2.17;;;;;;;;;;4935439;29;20027;-75
2022/05/21 05:35:14;;;;;;;11.68;1.80;;;;;;;;;;4929030;29;20460;-76
2022/05/21 05:37:41;;;;;;;15.20;2.58;;;;;;;;;;4916059;29;20024;-77
2022/05/21 05:40:08;;;;;;;12.35;1.85;;;;;;;;;;4916180;29;20103;-76
2022/05/21 05:42:35;;;;;;;10.98;2.25;;;;;;;;;;4916259;29;20028;-76
2022/05/21 05:45:01;;;;;;;10.82;2.17;;;;;;;;;;4916235;29;20035;-74
2022/05/21 05:47:28;;;;;;;16.40;1.83;;;;;;;;;;4916046;29;20050;-78
2022/05/21 05:49:54;;;;;;;12.52;2.38;;;;;;;;;;4915946;29;20111;-78
2022/05/21 05:52:20;;;;;;;20.52;2.47;;;;;;;;;;4916805;29;20032;-77
2022/05/21 05:54:47;;;;;;;11.93;2.28;;;;;;;;;;4916001;29;20095;-77
2022/05/21 05:57:13;;;;;;;13.68;2.00;;;;;;;;;;4916192;29;20028;-76
2022/05/21 05:59:49;;;;;;;16.58;2.50;;;;;;;;;;4915739;29;20395;-76
2022/05/21 06:05:01;;;;;;;13.45;2.00;;;;;;;;;;4915973;29;20131;-77
2022/05/21 06:07:27;;;;;;;13.52;2.47;;;;;;;;;;4916227;29;20027;-78
2022/05/21 06:09:54;;;;;;;17.13;2.58;;;;;;;;;;4921116;29;20051;-77
2022/05/21 06:12:20;;;;;;;13.05;2.08;;;;;;;;;;4934413;29;20031;-77
2022/05/21 06:14:46;;;;;;;10.23;2.08;;;;;;;;;;4935160;29;20036;-77
2022/05/21 06:17:13;;;;;;;16.38;2.33;;;;;;;;;;4934848;29;20051;-76
2022/05/21 06:19:39;;;;;;;17.52;2.38;;;;;;;;;;4934926;29;20092;-76
2022/05/21 06:22:05;;;;;;;10.63;2.00;;;;;;;;;;4917546;29;20412;-76
2022/05/21 06:24:38;;;;;;;13.27;2.05;;;;;;;;;;4932607;29;20062;-77
2022/05/21 06:27:07;;;;;;;17.40;2.45;;;;;;;;;;4926128;29;20030;-76
2022/05/21 06:29:35;;;;;;;10.90;2.13;;;;;;;;;;4935020;29;20024;-76
2022/05/21 06:32:02;;;;;;;13.50;2.45;;;;;;;;;;4933436;29;20028;-76
2022/05/21 06:34:28;;;;;;;14.20;1.85;;;;;;;;;;4934183;29;20054;-76
2022/05/21 06:36:54;;;;;;;14.02;2.30;;;;;;;;;;4935041;29;20131;-76
2022/05/21 06:39:20;;;;;;;14.10;2.17;;;;;;;;;;4937868;29;20492;-77
2022/05/21 06:41:47;;;;;;;10.77;1.92;;;;;;;;;;4936765;29;20028;-76
2022/05/21 06:44:13;;;;;;;13.13;1.75;;;;;;;;;;4933609;29;20377;-75
2022/05/21 06:46:39;;;;;;;17.13;1.90;;;;;;;;;;4937194;29;20030;-74
2022/05/21 06:49:05;;;;;;;17.88;2.20;;;;;;;;;;4937202;29;20488;-74
2022/05/21 06:51:31;;;;;;;12.10;2.10;;;;;;;;;;4937036;29;20034;-74
2022/05/21 06:53:57;;;;;;;12.95;2.15;;;;;;;;;;4936685;29;20035;-75
2022/05/21 06:56:23;;;;;;;10.57;1.75;;;;;;;;;;4937429;29;20083;-76
2022/05/21 06:58:51;;;;;;;12.98;1.80;;;;;;;;;;4936439;29;20551;-74
2022/05/21 07:01:17;;;;;;;15.32;2.22;;;;;;;;;;4931748;29;20564;-74
2022/05/21 07:03:43;;;;;;;10.63;1.67;;;;;;;;;;4935959;29;20032;-74
2022/05/21 07:08:54;;;;;;;13.98;1.80;;;;;;;;;;4936808;29;20533;-73
2022/05/21 07:11:20;;;;;;;13.90;2.53;;;;;;;;;;4936662;29;20027;-74
2022/05/21 07:13:47;;;;;;;15.93;2.03;;;;;;;;;;4936268;29;20497;-73
2022/05/21 07:16:13;;;;;;;14.20;2.08;;;;;;;;;;4936840;29;20036;-74
2022/05/21 07:18:39;;;;;;;10.85;2.28;;;;;;;;;;4932108;29;20481;-74
2022/05/21 07:21:10;;;;;;;13.10;1.90;;;;;;;;;;4936318;29;20131;-74
2022/05/21 07:23:36;;;;;;;7.80;2.03;;;;;;;;;;4936603;29;20079;-72
2022/05/21 07:26:02;;;;;;;11.60;1.73;;;;;;;;;;4935700;29;20023;-74
2022/05/21 07:28:28;;;;;;;11.43;1.60;;;;;;;;;;4927373;29;20038;-72
2022/05/21 07:30:54;;;;;;;11.07;1.55;;;;;;;;;;4933394;29;20032;-73
2022/05/21 07:33:21;;;;;;;14.80;2.08;;;;;;;;;;4935849;29;20040;-74
2022/05/21 07:35:48;;;;;;;9.85;1.80;;;;;;;;;;4931427;29;20038;-74
2022/05/21 07:38:15;;;;;;;8.35;1.95;;;;;;;;;;4933963;29;20046;-72
2022/05/21 07:40:42;;;;;;;15.05;2.22;;;;;;;;;;4928626;29;20039;-74
2022/05/21 07:43:09;;;;;;;9.43;1.67;;;;;;;;;;4917552;29;20469;-74
2022/05/21 07:45:38;;;;;;;9.57;1.75;;;;;;;;;;4935443;29;20042;-75
2022/05/21 07:48:05;;;;;;;10.90;1.92;;;;;;;;;;4934931;29;20052;-74
2022/05/21 07:50:31;;;;;;;13.55;1.80;;;;;;;;;;4934071;29;20046;-75
2022/05/21 07:52:57;;;;;;;15.90;2.53;;;;;;;;;;4933111;29;20043;-74
2022/05/21 07:55:23;;;;;;;11.07;1.65;;;;;;;;;;4933589;29;20024;-74
2022/05/21 07:57:50;;;;;;;10.68;1.83;;;;;;;;;;4917065;29;20032;-75
2022/05/21 08:00:18;;;;;;;11.85;1.80;;;;;;;;;;4934515;29;20485;-75
2022/05/21 08:02:45;;;;;;;9.95;1.63;;;;;;;;;;4935835;29;20032;-74
2022/05/21 08:05:11;;;;;;;9.15;2.13;;;;;;;;;;4935147;29;20026;-74
2022/05/21 08:07:38;;;;;;;9.73;1.67;;;;;;;;;;4932025;29;20035;-75
2022/05/21 08:10:05;;;;;;;13.32;1.85;;;;;;;;;;4934295;29;20028;-74
2022/05/21 08:12:31;;;;;;;8.65;1.63;;;;;;;;;;4934168;29;20031;-73
2022/05/21 08:14:57;;;;;;;8.23;1.77;;;;;;;;;;4930064;29;20448;-74
2022/05/21 08:17:23;;;;;;;11.85;2.03;;;;;;;;;;4930729;29;20119;-75
2022/05/21 08:19:49;;;;;;;14.60;1.98;;;;;;;;;;4915361;29;20083;-74
2022/05/21 08:27:57;;;;;;;14.55;1.95;;;;;;;;;;4933517;29;20199;-75
2022/05/21 08:30:23;;;;;;;9.57;1.63;;;;;;;;;;4919271;29;20457;-74
2022/05/21 08:32:49;;;;;;;10.27;2.17;;;;;;;;;;4899288;29;20092;-74
2022/05/21 08:35:15;;;;;;;11.20;2.03;;;;;;;;;;4915537;29;20039;-73
2022/05/21 08:37:41;;;;;;;10.77;2.00;;;;;;;;;;4916830;29;20116;-74
2022/05/21 08:40:07;;;;;;;12.10;1.90;;;;;;;;;;4932873;29;20032;-75
2022/05/21 08:42:39;;;;;;;11.50;1.88;;;;;;;;;;4925659;29;20034;-75
2022/05/21 08:45:13;;;;;;;8.65;1.70;;;;;;;;;;4920610;29;20031;-77
2022/05/21 08:47:40;;;;;;;8.20;1.60;;;;;;;;;;4934607;29;20032;-75
2022/05/21 08:50:17;;;;;;;9.18;1.60;;;;;;;;;;4934833;29;20424;-74
2022/05/21 08:52:48;;;;;;;10.05;1.55;;;;;;;;;;4934987;29;20156;-74
2022/05/21 08:55:18;;;;;;;8.63;1.42;;;;;;;;;;4935412;29;20511;-75
2022/05/21 08:57:47;;;;;;;8.15;1.60;;;;;;;;;;4935101;29;20036;-75
2022/05/21 09:00:19;;;;;;;10.38;1.77;;;;;;;;;;4920310;29;20401;-75
2022/05/21 09:02:45;;;;;;;5.85;1.60;;;;;;;;;;4919310;29;20111;-75
2022/05/21 09:05:13;;;;;;;6.05;1.42;;;;;;;;;;4933775;29;20027;-75
2022/05/21 09:07:58;;;;;;;8.73;1.60;;;;;;;;;;4930818;29;20020;-74
2022/05/21 09:10:35;;;;;;;7.68;1.60;;;;;;;;;;4932598;29;20094;-74
2022/05/21 09:13:26;;;;;;;7.20;1.67;;;;;;;;;;4933968;29;20417;-74
2022/05/21 09:18:37;;;;;;;6.50;1.35;;;;;;;;;;4923550;29;20050;-73
2022/05/21 09:21:08;;;;;;;9.88;1.52;;;;;;;;;;4933431;29;20136;-74
2022/05/21 09:23:54;;;;;;;9.35;1.83;;;;;;;;;;4933958;29;20046;-73
2022/05/21 09:26:22;;;;;;;11.15;1.85;;;;;;;;;;4933686;29;20071;-77
2022/05/21 09:28:49;;;;;;;6.57;1.52;;;;;;;;;;4934014;29;20027;-74
2022/05/21 09:31:22;;;;;;;6.75;1.40;;;;;;;;;;4934117;29;20031;-74
2022/05/21 09:33:48;;;;;;;;;;;;;;;;;;4906175;29;20169;-75
2022/05/21 09:36:21;;;;;;;10.55;1.60;;;;;;;;;;4914640;29;19947;-75
2022/05/21 09:38:54;;;;;;;5.97;1.23;;;;;;;;;;4914567;29;20044;-74
2022/05/21 09:41:20;;;;;;;;;;;;;;;;;;4915610;29;20028;-74
2022/05/21 09:46:37;;;;;;;10.77;1.42;;;;;;;;;;4923466;29;20071;-75
2022/05/21 09:49:15;;;;;;;8.90;1.48;;;;;;;;;;4912034;29;20036;-74
2022/05/21 09:51:41;;;;;;;10.25;1.48;;;;;;;;;;4931813;29;20027;-71
2022/05/21 09:54:21;;;;;;;8.98;1.75;;;;;;;;;;4912951;29;20044;-71
2022/05/21 09:56:49;;;;;;;8.70;1.65;;;;;;;;;;4931939;29;20039;-70
2022/05/21 09:59:16;;;;;;;9.43;1.67;;;;;;;;;;4927330;29;20106;-71
2022/05/21 10:01:44;;;;;;;8.48;1.60;;;;;;;;;;4929265;29;20035;-71
2022/05/21 10:04:27;;;;;;;10.73;1.60;;;;;;;;;;4929826;29;20020;-71
2022/05/21 10:06:59;;;;;;;8.25;1.77;;;;;;;;;;4921735;29;20505;-69
2022/05/21 10:12:28;;;;;;;8.60;1.42;;;;;;;;;;4935434;29;20031;-71
2022/05/21 10:15:15;;;;;;;5.35;1.55;;;;;;;;;;4934379;29;20031;-70
2022/05/21 10:17:42;;;;;;;7.45;1.38;;;;;;;;;;4917802;29;20032;-70
2022/05/21 10:20:12;;;;;;;8.05;1.35;;;;;;;;;;4917483;29;20047;-70
2022/05/21 10:22:38;;;;;;;10.82;1.42;;;;;;;;;;4917522;29;20047;-70
2022/05/21 10:25:04;;;;;;;8.65;1.40;;;;;;;;;;4930690;29;20079;-70
2022/05/21 10:27:46;;;;;;;7.63;1.35;;;;;;;;;;4936632;29;20035;-69
2022/05/21 10:30:18;;;;;;;11.13;1.85;;;;;;;;;;4936511;29;20027;-71
2022/05/21 10:33:01;;;;;;;8.57;1.45;;;;;;;;;;4925172;29;20044;-69
2022/05/21 10:35:31;;;;;;;7.22;1.50;;;;;;;;;;4915917;29;20040;-69
2022/05/21 10:37:57;;;;;;;8.00;1.67;;;;;;;;;;4917391;29;20067;-69
2022/05/21 10:40:41;;;;;;;7.95;2.33;;;;;;;;;;4917280;29;20036;-69
2022/05/21 10:43:10;;;;;;;5.78;1.70;;;;;;;;;;4917165;29;20032;-69
2022/05/21 10:45:55;;;;;;;4.20;1.00;;;;;;;;;;4917315;29;20111;-70
2022/05/21 10:48:24;;;;;;;7.10;1.40;;;;;;;;;;4917263;29;20024;-69
2022/05/21 10:51:03;;;;;;;8.63;1.35;;;;;;;;;;4917051;29;20106;-69
2022/05/21 10:53:44;;;;;;;7.35;1.23;;;;;;;;;;4929094;29;20527;-69
2022/05/21 10:56:20;;;;;;;6.43;1.30;;;;;;;;;;4933540;29;20094;-69
2022/05/21 10:58:50;;;;;;;8.57;1.50;;;;;;;;;;4918141;29;20044;-69
2022/05/21 11:01:16;;;;;;;7.30;1.50;;;;;;;;;;4933856;29;20032;-69
2022/05/21 11:04:01;;;;;;;7.25;1.48;;;;;;;;;;4934901;29;20260;-69
2022/05/21 11:06:45;;;;;;;9.32;1.70;;;;;;;;;;4925951;29;20024;-69
2022/05/21 11:09:11;;;;;;;6.78;1.35;;;;;;;;;;4918813;29;20074;-69
2022/05/21 11:11:42;;;;;;;7.63;1.30;;;;;;;;;;4935773;29;20039;-68
2022/05/21 11:14:20;;;;;;;6.57;1.40;;;;;;;;;;4935610;29;20051;-69
2022/05/21 11:16:56;;;;;;;7.55;1.55;;;;;;;;;;4934555;29;20106;-69
2022/05/21 11:19:31;;;;;;;8.60;1.67;;;;;;;;;;4930010;29;20031;-69
2022/05/21 11:22:08;;;;;;;10.77;1.80;;;;;;;;;;4933719;29;20067;-68
2022/05/21 11:24:51;;;;;;;7.78;1.58;;;;;;;;;;4923860;29;20034;-69
2022/05/21 11:27:24;;;;;;;8.80;1.60;;;;;;;;;;4932384;29;20043;-69
2022/05/21 11:30:04;;;;;;;11.43;1.75;;;;;;;;;;4932210;29;20031;-68
2022/05/21 11:38:24;;;;;;;10.25;2.08;;;;;;;;;;4935141;29;20127;-68
2022/05/21 11:40:50;;;;;;;9.60;2.05;;;;;;;;;;4935321;29;20027;-67
2022/05/21 11:43:21;;;;;;;13.35;1.75;;;;;;;;;;4935243;29;20082;-67
2022/05/21 11:45:59;;;;;;;13.35;2.22;;;;;;;;;;4935248;29;20038;-66
2022/05/21 11:48:30;;;;;;;9.05;1.65;;;;;;;;;;4934221;29;20436;-66
2022/05/21 11:51:16;;;;;;;8.10;1.88;;;;;;;;;;4918134;29;20504;-68
2022/05/21 11:53:44;;;;;;;8.20;1.95;;;;;;;;;;4935120;29;20050;-68
2022/05/21 11:56:12;;;;;;;9.18;2.08;;;;;;;;;;4935021;29;20098;-68
2022/05/21 11:58:50;;;;;;;10.07;1.88;;;;;;;;;;4917658;29;20476;-67
2022/05/21 12:01:35;;;;;;;9.88;1.73;;;;;;;;;;4934836;29;20481;-68
2022/05/21 12:04:01;;;;;;;9.18;1.77;;;;;;;;;;4934826;29;20059;-68
2022/05/21 12:06:32;;;;;;;9.43;1.55;;;;;;;;;;4933662;29;20500;-68
2022/05/21 12:09:22;;;;;;;11.77;1.88;;;;;;;;;;4934298;29;20481;-68
2022/05/21 12:11:48;;;;;;;9.60;1.92;;;;;;;;;;4927180;29;20052;-68
2022/05/21 12:14:25;;;;;;;13.85;2.10;;;;;;;;;;4934776;29;20044;-68
2022/05/21 12:17:01;;;;;;;10.02;2.10;;;;;;;;;;4934541;29;20031;-68
2022/05/21 12:19:46;;;;;;;11.30;3.03;;;;;;;;;;4933155;29;20107;-68
2022/05/21 12:22:32;;;;;;;7.75;1.65;;;;;;;;;;4934196;29;20259;-68
2022/05/21 12:24:58;;;;;;;13.35;2.20;;;;;;;;;;4915576;29;20055;-68
2022/05/21 12:27:26;;;;;;;14.60;2.35;;;;;;;;;;4915408;29;20362;-68
2022/05/21 12:30:19;;;;;;;10.82;2.03;;;;;;;;;;4915621;29;20024;-68
2022/05/21 12:32:45;;;;;;;13.68;2.20;;;;;;;;;;4914588;29;20031;-68
2022/05/21 12:35:26;;;;;;;11.10;1.67;;;;;;;;;;4914087;29;20032;-68
2022/05/21 12:37:57;;;;;;;10.25;1.95;;;;;;;;;;4915238;29;20028;-67
2022/05/21 12:40:38;;;;;;;9.82;1.83;;;;;;;;;;4930905;29;20326;-67
2022/05/21 12:43:11;;;;;;;11.20;2.10;;;;;;;;;;4933964;29;20098;-67
2022/05/21 12:45:45;;;;;;;9.82;1.70;;;;;;;;;;4933875;29;20020;-67
2022/05/21 12:48:11;;;;;;;13.95;1.98;;;;;;;;;;4933911;29;20040;-67
2022/05/21 12:50:45;;;;;;;14.05;1.83;;;;;;;;;;4934367;29;20036;-68
2022/05/21 12:53:12;;;;;;;12.00;1.80;;;;;;;;;;4934072;29;20032;-68
2022/05/21 12:55:38;;;;;;;9.52;2.00;;;;;;;;;;4933814;29;20055;-68
2022/05/21 12:58:10;;;;;;;11.10;1.88;;;;;;;;;;4933101;29;20024;-67
2022/05/21 13:00:37;;;;;;;12.20;2.38;;;;;;;;;;4933802;29;20062;-67
2022/05/21 13:03:11;;;;;;;14.52;2.50;;;;;;;;;;4934019;29;20107;-67
2022/05/21 13:05:46;;;;;;;11.13;1.77;;;;;;;;;;4916541;29;20448;-67
2022/05/21 13:08:13;;;;;;;11.30;2.30;;;;;;;;;;4933427;29;20449;-67
2022/05/21 13:10:40;;;;;;;13.10;3.15;;;;;;;;;;4933314;29;20028;-68
2022/05/21 13:13:06;;;;;;;16.83;2.35;;;;;;;;;;4933706;29;20040;-68
2022/05/21 13:15:53;;;;;;;12.77;2.03;;;;;;;;;;4916899;29;20028;-68
2022/05/21 13:18:25;;;;;;;10.32;2.15;;;;;;;;;;4914485;29;20078;-67
2022/05/21 13:20:51;;;;;;;7.97;2.00;;;;;;;;;;4914549;29;20059;-68
2022/05/21 13:23:36;;;;;;;10.40;2.00;;;;;;;;;;4914598;29;20035;-68
2022/05/21 13:26:02;;;;;;;11.32;1.88;;;;;;;;;;4914392;29;20036;-68
2022/05/21 13:28:28;;;;;;;16.85;2.40;;;;;;;;;;4913244;29;20028;-67
2022/05/21 13:30:54;;;;;;;12.13;2.15;;;;;;;;;;4915473;29;20045;-67
2022/05/21 13:33:28;;;;;;;10.38;1.92;;;;;;;;;;4914761;29;20048;-67
2022/05/21 13:35:56;;;;;;;11.75;1.80;;;;;;;;;;4914567;29;20072;-68
2022/05/21 13:38:28;;;;;;;13.88;2.28;;;;;;;;;;4915197;29;20032;-68
2022/05/21 13:40:55;;;;;;;13.05;2.22;;;;;;;;;;4933553;29;20450;-68
2022/05/21 13:43:23;;;;;;;14.13;2.00;;;;;;;;;;4933748;29;20027;-68
2022/05/21 13:45:57;;;;;;;13.27;2.40;;;;;;;;;;4933459;29;20047;-68
2022/05/21 13:48:26;;;;;;;11.13;2.42;;;;;;;;;;4936363;29;20024;-68
2022/05/21 13:50:52;;;;;;;10.60;2.20;;;;;;;;;;4937176;29;20535;-68
2022/05/21 13:53:37;;;;;;;9.00;1.90;;;;;;;;;;4937272;29;20103;-67
2022/05/21 13:56:05;;;;;;;12.75;1.80;;;;;;;;;;4937303;29;20036;-67
2022/05/21 13:58:38;;;;;;;11.25;1.90;;;;;;;;;;4936942;29;20031;-67
2022/05/21 14:01:07;;;;;;;9.82;2.00;;;;;;;;;;4937060;29;20497;-67
2022/05/21 14:03:45;;;;;;;9.10;1.80;;;;;;;;;;4919726;29;20087;-67
2022/05/21 14:06:16;;;;;;;10.10;1.80;;;;;;;;;;4936221;29;20019;-67
2022/05/21 14:08:49;;;;;;;11.02;1.90;;;;;;;;;;4937011;29;20038;-67
2022/05/21 14:11:17;;;;;;;9.93;1.87;;;;;;;;;;4936724;29;20038;-67
2022/05/21 14:13:43;;;;;;;11.65;2.15;;;;;;;;;;4936529;29;20035;-67
2022/05/21 14:16:23;;;;;;;12.20;2.03;;;;;;;;;;4919465;29;20349;-67
2022/05/21 14:19:19;;;;;;;11.27;1.77;;;;;;;;;;4936818;29;20051;-68
2022/05/21 14:21:58;;;;;;;12.77;1.90;;;;;;;;;;4918675;29;20087;-68
2022/05/21 14:24:26;;;;;;;10.40;1.90;;;;;;;;;;4936483;29;20419;-66
2022/05/21 14:26:57;;;;;;;9.95;2.15;;;;;;;;;;4936882;29;20035;-67
2022/05/21 14:29:35;;;;;;;11.02;2.13;;;;;;;;;;4936624;29;20063;-67
2022/05/21 14:32:17;;;;;;;10.80;1.92;;;;;;;;;;4936502;29;20032;-66
2022/05/21 14:34:47;;;;;;;9.63;1.65;;;;;;;;;;4936098;29;20046;-69
2022/05/21 14:37:30;;;;;;;12.18;1.90;;;;;;;;;;4936216;29;20024;-68
2022/05/21 14:39:56;;;;;;;8.85;1.67;;;;;;;;;;4935334;29;20361;-68
2022/05/21 14:42:23;;;;;;;7.90;1.42;;;;;;;;;;4936090;29;20028;-68
2022/05/21 14:44:50;;;;;;;7.47;1.63;;;;;;;;;;4936297;29;20055;-67
2022/05/21 14:52:50;;;;;;;9.48;1.52;;;;;;;;;;4936564;29;20098;-68
2022/05/21 14:55:16;;;;;;;9.02;1.77;;;;;;;;;;4936314;29;20119;-68
2022/05/21 14:57:42;;;;;;;7.15;1.65;;;;;;;;;;4935060;29;20030;-68
2022/05/21 15:00:09;;;;;;;9.82;2.00;;;;;;;;;;4935869;29;20034;-68
2022/05/21 15:02:35;;;;;;;11.60;1.67;;;;;;;;;;4935850;29;20036;-67
2022/05/21 15:05:01;;;;;;;10.05;1.50;;;;;;;;;;4935938;29;20034;-67
2022/05/21 15:07:28;;;;;;;8.02;1.83;;;;;;;;;;4935782;29;20441;-68
2022/05/21 15:09:56;;;;;;;8.55;1.60;;;;;;;;;;4935439;29;20027;-67
2022/05/21 15:12:22;;;;;;;8.00;1.70;;;;;;;;;;4935292;29;20032;-66
2022/05/21 15:14:48;;;;;;;7.43;1.63;;;;;;;;;;4935211;29;20047;-67
2022/05/21 15:17:14;;;;;;;7.85;1.60;;;;;;;;;;4928451;29;20398;-68
2022/05/21 15:19:40;;;;;;;7.47;1.55;;;;;;;;;;4928984;29;20049;-67
2022/05/21 15:22:12;;;;;;;8.57;1.83;;;;;;;;;;4932426;29;20055;-67
2022/05/21 15:24:38;;;;;;;9.13;1.88;;;;;;;;;;4934153;29;20032;-68